sensor_id;sensor_type;location;lat;lon;timestamp;pressure;altitude;pressure_sealevel;temperature;humidity
39455;BME280;25155;41.890;23.446;2023-01-06T00:02:26;92096.97;;;-0.44;64.26
39455;BME280;25155;41.890;23.446;2023-01-06T00:04:53;92094.72;;;-0.58;65.39
39455;BME280;25155;41.890;23.446;2023-01-06T00:07:21;92103.44;;;-0.60;65.29
39455;BME280;25155;41.890;23.446;2023-01-06T00:09:48;92102.47;;;-0.65;66.03
39455;BME280;25155;41.890;23.446;2023-01-06T00:12:15;92099.06;;;-0.59;65.16
39455;BME280;25155;41.890;23.446;2023-01-06T00:14:44;92101.44;;;-0.57;64.89
39455;BME280;25155;41.890;23.446;2023-01-06T00:17:13;92100.03;;;-0.53;64.64
39455;BME280;25155;41.890;23.446;2023-01-06T00:19:40;92102.63;;;-0.53;64.21
39455;BME280;25155;41.890;23.446;2023-01-06T00:22:11;92115.03;;;-0.50;64.61
39455;BME280;25155;41.890;23.446;2023-01-06T00:24:38;92106.97;;;-0.54;64.11
39455;BME280;25155;41.890;23.446;2023-01-06T00:27:19;92111.91;;;-0.52;65.12
39455;BME280;25155;41.890;23.446;2023-01-06T00:29:47;92106.78;;;-0.59;64.99
39455;BME280;25155;41.890;23.446;2023-01-06T00:32:16;92113.75;;;-0.60;64.75
39455;BME280;25155;41.890;23.446;2023-01-06T00:34:43;92124.81;;;-0.59;64.65
39455;BME280;25155;41.890;23.446;2023-01-06T00:37:10;92125.28;;;-0.69;64.39
39455;BME280;25155;41.890;23.446;2023-01-06T00:39:37;92125.34;;;-0.82;65.12
39455;BME280;25155;41.890;23.446;2023-01-06T00:42:05;92128.94;;;-0.83;65.32
39455;BME280;25155;41.890;23.446;2023-01-06T00:44:35;92132.31;;;-0.89;65.29
39455;BME280;25155;41.890;23.446;2023-01-06T00:47:06;92137.34;;;-1.01;65.90
39455;BME280;25155;41.890;23.446;2023-01-06T00:49:33;92138.34;;;-1.09;66.12
39455;BME280;25155;41.890;23.446;2023-01-06T00:52:00;92137.38;;;-1.08;66.94
39455;BME280;25155;41.890;23.446;2023-01-06T00:54:27;92132.63;;;-1.11;67.42
39455;BME280;25155;41.890;23.446;2023-01-06T00:56:56;92133.59;;;-1.12;68.02
39455;BME280;25155;41.890;23.446;2023-01-06T00:59:24;92130.25;;;-1.12;68.25
39455;BME280;25155;41.890;23.446;2023-01-06T01:01:54;92133.78;;;-1.07;68.41
39455;BME280;25155;41.890;23.446;2023-01-06T01:04:24;92138.53;;;-1.04;68.10
39455;BME280;25155;41.890;23.446;2023-01-06T01:06:52;92126.28;;;-1.08;68.17
39455;BME280;25155;41.890;23.446;2023-01-06T01:09:22;92145.63;;;-0.99;67.76
39455;BME280;25155;41.890;23.446;2023-01-06T01:11:50;92148.03;;;-1.04;67.64
39455;BME280;25155;41.890;23.446;2023-01-06T01:14:38;92139.75;;;-1.06;67.36
39455;BME280;25155;41.890;23.446;2023-01-06T01:17:06;92144.06;;;-1.07;67.35
39455;BME280;25155;41.890;23.446;2023-01-06T01:19:36;92158.34;;;-1.11;68.23
39455;BME280;25155;41.890;23.446;2023-01-06T01:22:05;92158.75;;;-1.14;67.97
39455;BME280;25155;41.890;23.446;2023-01-06T01:24:32;92161.72;;;-1.17;68.17
39455;BME280;25155;41.890;23.446;2023-01-06T01:27:00;92158.56;;;-1.19;68.64
39455;BME280;25155;41.890;23.446;2023-01-06T01:29:28;92154.41;;;-1.20;68.31
39455;BME280;25155;41.890;23.446;2023-01-06T01:31:55;92154.00;;;-1.17;67.93
39455;BME280;25155;41.890;23.446;2023-01-06T01:34:22;92162.31;;;-1.15;68.66
39455;BME280;25155;41.890;23.446;2023-01-06T01:36:52;92161.91;;;-1.12;69.43
39455;BME280;25155;41.890;23.446;2023-01-06T01:39:21;92146.06;;;-1.09;69.53
39455;BME280;25155;41.890;23.446;2023-01-06T01:41:50;92152.13;;;-0.97;71.57
39455;BME280;25155;41.890;23.446;2023-01-06T01:44:52;92144.34;;;-0.76;71.45
39455;BME280;25155;41.890;23.446;2023-01-06T01:47:25;92145.41;;;-0.59;70.86
39455;BME280;25155;41.890;23.446;2023-01-06T01:49:56;92131.09;;;-0.48;70.64
39455;BME280;25155;41.890;23.446;2023-01-06T01:52:26;92133.16;;;-0.32;71.72
39455;BME280;25155;41.890;23.446;2023-01-06T01:54:54;92126.38;;;-0.01;71.54
39455;BME280;25155;41.890;23.446;2023-01-06T01:57:26;92145.91;;;0.32;70.80
39455;BME280;25155;41.890;23.446;2023-01-06T01:59:54;92151.38;;;0.61;69.67
39455;BME280;25155;41.890;23.446;2023-01-06T02:02:22;92146.09;;;0.74;68.24
39455;BME280;25155;41.890;23.446;2023-01-06T02:04:52;92157.19;;;0.75;67.27
39455;BME280;25155;41.890;23.446;2023-01-06T02:07:23;92162.00;;;0.71;66.68
39455;BME280;25155;41.890;23.446;2023-01-06T02:09:59;92156.09;;;0.64;66.25
39455;BME280;25155;41.890;23.446;2023-01-06T02:12:28;92148.84;;;0.54;65.83
39455;BME280;25155;41.890;23.446;2023-01-06T02:14:56;92139.78;;;0.51;66.14
39455;BME280;25155;41.890;23.446;2023-01-06T02:17:42;92130.31;;;0.45;66.19
39455;BME280;25155;41.890;23.446;2023-01-06T02:20:37;92145.56;;;0.47;68.04
39455;BME280;25155;41.890;23.446;2023-01-06T02:30:04;92143.53;;;1.04;68.68
39455;BME280;25155;41.890;23.446;2023-01-06T02:32:56;92140.16;;;1.22;67.83
39455;BME280;25155;41.890;23.446;2023-01-06T02:35:53;92150.31;;;1.36;67.51
39455;BME280;25155;41.890;23.446;2023-01-06T02:38:37;92156.97;;;1.43;67.78
39455;BME280;25155;41.890;23.446;2023-01-06T02:41:12;92158.56;;;1.56;67.37
39455;BME280;25155;41.890;23.446;2023-01-06T02:43:54;92158.47;;;1.63;66.77
39455;BME280;25155;41.890;23.446;2023-01-06T02:46:35;92146.25;;;1.70;66.97
39455;BME280;25155;41.890;23.446;2023-01-06T02:49:24;92158.97;;;1.72;67.02
39455;BME280;25155;41.890;23.446;2023-01-06T02:52:00;92150.63;;;1.81;67.45
39455;BME280;25155;41.890;23.446;2023-01-06T02:54:51;92156.63;;;1.82;67.18
39455;BME280;25155;41.890;23.446;2023-01-06T02:57:26;92151.56;;;1.87;66.86
39455;BME280;25155;41.890;23.446;2023-01-06T03:00:05;92163.59;;;1.93;66.92
39455;BME280;25155;41.890;23.446;2023-01-06T03:02:37;92161.03;;;1.93;67.20
39455;BME280;25155;41.890;23.446;2023-01-06T03:05:11;92167.19;;;1.92;67.15
39455;BME280;25155;41.890;23.446;2023-01-06T03:07:41;92170.34;;;1.94;67.48
39455;BME280;25155;41.890;23.446;2023-01-06T03:10:11;92162.16;;;1.97;67.22
39455;BME280;25155;41.890;23.446;2023-01-06T03:12:43;92157.19;;;1.96;67.21
39455;BME280;25155;41.890;23.446;2023-01-06T03:15:13;92160.91;;;2.00;67.58
39455;BME280;25155;41.890;23.446;2023-01-06T03:17:40;92155.75;;;2.00;67.69
39455;BME280;25155;41.890;23.446;2023-01-06T03:20:11;92152.72;;;2.03;67.48
39455;BME280;25155;41.890;23.446;2023-01-06T03:22:39;92161.78;;;1.82;67.82
39455;BME280;25155;41.890;23.446;2023-01-06T03:25:07;92167.88;;;1.99;67.41
39455;BME280;25155;41.890;23.446;2023-01-06T03:27:35;92160.81;;;2.07;67.37
39455;BME280;25155;41.890;23.446;2023-01-06T03:30:09;92154.50;;;2.03;67.64
39455;BME280;25155;41.890;23.446;2023-01-06T03:32:46;92164.84;;;2.03;67.44
39455;BME280;25155;41.890;23.446;2023-01-06T03:35:27;92153.72;;;2.02;67.80
39455;BME280;25155;41.890;23.446;2023-01-06T03:38:03;92151.38;;;2.01;67.92
39455;BME280;25155;41.890;23.446;2023-01-06T03:40:37;92141.13;;;1.94;68.15
39455;BME280;25155;41.890;23.446;2023-01-06T03:43:10;92152.34;;;1.99;67.73
39455;BME280;25155;41.890;23.446;2023-01-06T03:45:45;92158.28;;;1.76;68.25
39455;BME280;25155;41.890;23.446;2023-01-06T03:48:32;92139.31;;;1.83;68.20
39455;BME280;25155;41.890;23.446;2023-01-06T03:51:11;92141.66;;;1.84;68.42
39455;BME280;25155;41.890;23.446;2023-01-06T03:53:48;92144.81;;;1.86;68.83
39455;BME280;25155;41.890;23.446;2023-01-06T03:56:22;92148.97;;;1.87;68.77
39455;BME280;25155;41.890;23.446;2023-01-06T03:58:54;92159.53;;;1.86;68.96
39455;BME280;25155;41.890;23.446;2023-01-06T04:01:24;92147.97;;;1.88;68.97
39455;BME280;25155;41.890;23.446;2023-01-06T04:03:52;92150.56;;;1.88;69.10
39455;BME280;25155;41.890;23.446;2023-01-06T04:06:22;92142.81;;;1.88;69.36
39455;BME280;25155;41.890;23.446;2023-01-06T04:08:49;92148.66;;;1.95;69.44
39455;BME280;25155;41.890;23.446;2023-01-06T04:11:17;92149.66;;;1.94;69.23
39455;BME280;25155;41.890;23.446;2023-01-06T04:13:59;92147.88;;;1.95;69.12
39455;BME280;25155;41.890;23.446;2023-01-06T04:16:27;92157.53;;;1.99;69.20
39455;BME280;25155;41.890;23.446;2023-01-06T04:18:54;92163.72;;;1.98;69.04
39455;BME280;25155;41.890;23.446;2023-01-06T04:21:22;92169.78;;;2.04;69.04
39455;BME280;25155;41.890;23.446;2023-01-06T04:23:49;92165.19;;;2.06;68.97
39455;BME280;25155;41.890;23.446;2023-01-06T04:26:17;92173.41;;;2.03;69.28
39455;BME280;25155;41.890;23.446;2023-01-06T04:28:44;92172.59;;;2.03;68.90
39455;BME280;25155;41.890;23.446;2023-01-06T04:31:11;92170.91;;;1.96;69.21
39455;BME280;25155;41.890;23.446;2023-01-06T04:33:38;92177.22;;;2.01;69.02
39455;BME280;25155;41.890;23.446;2023-01-06T04:36:06;92178.44;;;1.98;68.92
39455;BME280;25155;41.890;23.446;2023-01-06T04:38:36;92170.34;;;1.94;68.86
39455;BME280;25155;41.890;23.446;2023-01-06T04:41:04;92168.66;;;1.88;69.02
39455;BME280;25155;41.890;23.446;2023-01-06T04:43:31;92166.16;;;1.81;69.57
39455;BME280;25155;41.890;23.446;2023-01-06T04:45:58;92155.59;;;1.83;69.13
39455;BME280;25155;41.890;23.446;2023-01-06T04:48:26;92159.97;;;1.83;69.29
39455;BME280;25155;41.890;23.446;2023-01-06T04:50:59;92161.56;;;1.84;68.61
39455;BME280;25155;41.890;23.446;2023-01-06T04:53:27;92159.19;;;1.82;68.85
39455;BME280;25155;41.890;23.446;2023-01-06T04:56:01;92155.69;;;1.76;69.02
39455;BME280;25155;41.890;23.446;2023-01-06T04:58:28;92179.44;;;1.85;68.74
39455;BME280;25155;41.890;23.446;2023-01-06T05:00:58;92180.75;;;1.76;69.10
39455;BME280;25155;41.890;23.446;2023-01-06T05:03:26;92191.66;;;1.78;69.11
39455;BME280;25155;41.890;23.446;2023-01-06T05:05:54;92184.00;;;1.71;69.53
39455;BME280;25155;41.890;23.446;2023-01-06T05:08:21;92181.06;;;1.68;69.72
39455;BME280;25155;41.890;23.446;2023-01-06T05:10:48;92172.53;;;1.67;69.43
39455;BME280;25155;41.890;23.446;2023-01-06T05:13:17;92162.63;;;1.64;69.47
39455;BME280;25155;41.890;23.446;2023-01-06T05:15:44;92154.53;;;1.60;69.71
39455;BME280;25155;41.890;23.446;2023-01-06T05:18:11;92157.81;;;1.68;69.18
39455;BME280;25155;41.890;23.446;2023-01-06T05:20:39;92153.41;;;1.68;68.56
39455;BME280;25155;41.890;23.446;2023-01-06T05:23:06;92167.28;;;1.74;68.42
39455;BME280;25155;41.890;23.446;2023-01-06T05:25:33;92170.06;;;1.72;68.61
39455;BME280;25155;41.890;23.446;2023-01-06T05:28:00;92159.31;;;1.75;68.54
39455;BME280;25155;41.890;23.446;2023-01-06T05:30:29;92165.13;;;1.71;68.62
39455;BME280;25155;41.890;23.446;2023-01-06T05:32:56;92177.03;;;1.72;68.19
39455;BME280;25155;41.890;23.446;2023-01-06T05:35:25;92167.16;;;1.69;68.66
39455;BME280;25155;41.890;23.446;2023-01-06T05:37:53;92174.47;;;1.72;68.35
39455;BME280;25155;41.890;23.446;2023-01-06T05:40:20;92185.91;;;1.76;68.35
39455;BME280;25155;41.890;23.446;2023-01-06T05:42:47;92185.91;;;1.76;68.29
39455;BME280;25155;41.890;23.446;2023-01-06T05:45:15;92185.47;;;1.79;68.28
39455;BME280;25155;41.890;23.446;2023-01-06T05:47:43;92190.53;;;1.74;68.67
39455;BME280;25155;41.890;23.446;2023-01-06T05:50:11;92193.00;;;1.80;68.40
39455;BME280;25155;41.890;23.446;2023-01-06T05:52:38;92178.84;;;1.83;68.48
39455;BME280;25155;41.890;23.446;2023-01-06T05:55:06;92164.81;;;1.79;68.12
39455;BME280;25155;41.890;23.446;2023-01-06T05:57:34;92180.88;;;1.81;68.08
39455;BME280;25155;41.890;23.446;2023-01-06T06:00:03;92188.28;;;1.77;67.94
39455;BME280;25155;41.890;23.446;2023-01-06T06:02:31;92185.03;;;1.82;68.00
39455;BME280;25155;41.890;23.446;2023-01-06T06:05:01;92171.69;;;1.97;67.33
39455;BME280;25155;41.890;23.446;2023-01-06T06:07:28;92195.25;;;2.54;66.33
39455;BME280;25155;41.890;23.446;2023-01-06T06:09:55;92201.44;;;3.13;63.80
39455;BME280;25155;41.890;23.446;2023-01-06T06:12:22;92190.81;;;3.55;61.95
39455;BME280;25155;41.890;23.446;2023-01-06T06:14:50;92206.31;;;3.95;60.97
39455;BME280;25155;41.890;23.446;2023-01-06T06:17:17;92222.69;;;4.30;59.21
39455;BME280;25155;41.890;23.446;2023-01-06T06:19:44;92258.25;;;4.80;58.38
39455;BME280;25155;41.890;23.446;2023-01-06T06:22:13;92268.00;;;5.29;57.61
39455;BME280;25155;41.890;23.446;2023-01-06T06:24:41;92269.03;;;5.45;56.61
39455;BME280;25155;41.890;23.446;2023-01-06T06:27:08;92259.09;;;5.42;56.40
39455;BME280;25155;41.890;23.446;2023-01-06T06:29:36;92251.44;;;5.13;55.29
39455;BME280;25155;41.890;23.446;2023-01-06T06:32:03;92252.28;;;4.80;55.79
39455;BME280;25155;41.890;23.446;2023-01-06T06:34:31;92228.91;;;4.46;57.25
39455;BME280;25155;41.890;23.446;2023-01-06T06:36:58;92224.56;;;4.17;58.12
39455;BME280;25155;41.890;23.446;2023-01-06T06:39:26;92228.47;;;4.03;59.13
39455;BME280;25155;41.890;23.446;2023-01-06T06:41:54;92240.53;;;3.80;59.43
39455;BME280;25155;41.890;23.446;2023-01-06T06:44:21;92222.31;;;3.75;59.68
39455;BME280;25155;41.890;23.446;2023-01-06T06:46:48;92231.00;;;3.69;59.77
39455;BME280;25155;41.890;23.446;2023-01-06T06:49:17;92237.66;;;3.65;60.30
39455;BME280;25155;41.890;23.446;2023-01-06T06:51:44;92252.75;;;3.68;59.87
39455;BME280;25155;41.890;23.446;2023-01-06T06:54:13;92275.25;;;3.79;59.35
39455;BME280;25155;41.890;23.446;2023-01-06T06:56:41;92261.00;;;3.94;59.33
39455;BME280;25155;41.890;23.446;2023-01-06T06:59:08;92263.00;;;4.04;58.45
39455;BME280;25155;41.890;23.446;2023-01-06T07:01:35;92269.22;;;4.19;58.91
39455;BME280;25155;41.890;23.446;2023-01-06T07:04:03;92280.88;;;4.34;57.89
39455;BME280;25155;41.890;23.446;2023-01-06T07:06:30;92284.78;;;4.48;57.59
39455;BME280;25155;41.890;23.446;2023-01-06T07:08:58;92279.66;;;4.53;56.94
39455;BME280;25155;41.890;23.446;2023-01-06T07:11:25;92295.41;;;4.64;56.48
39455;BME280;25155;41.890;23.446;2023-01-06T07:13:54;92291.13;;;4.74;55.93
39455;BME280;25155;41.890;23.446;2023-01-06T07:16:24;92301.41;;;4.81;56.49
39455;BME280;25155;41.890;23.446;2023-01-06T07:18:52;92314.13;;;5.00;55.32
39455;BME280;25155;41.890;23.446;2023-01-06T07:21:20;92307.50;;;5.09;54.14
39455;BME280;25155;41.890;23.446;2023-01-06T07:23:47;92317.00;;;5.20;54.53
39455;BME280;25155;41.890;23.446;2023-01-06T07:26:15;92324.25;;;5.35;54.27
39455;BME280;25155;41.890;23.446;2023-01-06T07:28:42;92313.28;;;5.50;53.84
39455;BME280;25155;41.890;23.446;2023-01-06T07:31:12;92315.31;;;5.65;53.99
39455;BME280;25155;41.890;23.446;2023-01-06T07:33:39;92316.66;;;5.67;52.94
39455;BME280;25155;41.890;23.446;2023-01-06T07:36:07;92300.81;;;5.69;53.36
39455;BME280;25155;41.890;23.446;2023-01-06T07:38:35;92304.78;;;5.77;53.27
39455;BME280;25155;41.890;23.446;2023-01-06T07:41:02;92311.91;;;5.86;53.19
39455;BME280;25155;41.890;23.446;2023-01-06T07:43:29;92321.47;;;6.03;52.71
39455;BME280;25155;41.890;23.446;2023-01-06T07:45:57;92317.44;;;6.12;52.53
39455;BME280;25155;41.890;23.446;2023-01-06T07:48:26;92323.28;;;6.24;52.31
39455;BME280;25155;41.890;23.446;2023-01-06T07:50:53;92317.88;;;6.31;51.95
39455;BME280;25155;41.890;23.446;2023-01-06T07:53:20;92323.16;;;6.41;51.31
39455;BME280;25155;41.890;23.446;2023-01-06T07:55:51;92298.34;;;6.29;50.60
39455;BME280;25155;41.890;23.446;2023-01-06T07:58:19;92301.72;;;6.02;50.50
39455;BME280;25155;41.890;23.446;2023-01-06T08:00:46;92323.66;;;6.11;50.92
39455;BME280;25155;41.890;23.446;2023-01-06T08:03:13;92323.59;;;6.06;50.39
39455;BME280;25155;41.890;23.446;2023-01-06T08:05:42;92319.13;;;6.01;50.26
39455;BME280;25155;41.890;23.446;2023-01-06T08:08:09;92315.06;;;6.11;50.00
39455;BME280;25155;41.890;23.446;2023-01-06T08:10:38;92318.44;;;6.11;49.39
39455;BME280;25155;41.890;23.446;2023-01-06T08:13:07;92323.13;;;6.09;49.61
39455;BME280;25155;41.890;23.446;2023-01-06T08:15:35;92330.63;;;6.05;49.75
39455;BME280;25155;41.890;23.446;2023-01-06T08:18:03;92324.94;;;6.09;49.13
39455;BME280;25155;41.890;23.446;2023-01-06T08:20:30;92320.66;;;5.97;48.37
39455;BME280;25155;41.890;23.446;2023-01-06T08:23:00;92332.84;;;5.97;48.37
39455;BME280;25155;41.890;23.446;2023-01-06T08:25:27;92342.00;;;5.99;48.80
39455;BME280;25155;41.890;23.446;2023-01-06T08:27:56;92328.75;;;6.01;48.22
39455;BME280;25155;41.890;23.446;2023-01-06T08:30:24;92339.44;;;6.04;47.44
39455;BME280;25155;41.890;23.446;2023-01-06T08:32:55;92334.34;;;6.15;47.38
39455;BME280;25155;41.890;23.446;2023-01-06T08:35:22;92324.66;;;6.10;47.32
39455;BME280;25155;41.890;23.446;2023-01-06T08:37:50;92332.38;;;6.22;47.18
39455;BME280;25155;41.890;23.446;2023-01-06T08:40:18;92333.78;;;6.35;47.43
39455;BME280;25155;41.890;23.446;2023-01-06T08:42:45;92323.75;;;6.44;46.63
39455;BME280;25155;41.890;23.446;2023-01-06T08:45:12;92332.63;;;6.48;46.35
39455;BME280;25155;41.890;23.446;2023-01-06T08:47:40;92332.84;;;6.46;46.34
39455;BME280;25155;41.890;23.446;2023-01-06T08:50:07;92326.44;;;6.54;45.83
39455;BME280;25155;41.890;23.446;2023-01-06T08:52:34;92326.44;;;6.54;45.66
39455;BME280;25155;41.890;23.446;2023-01-06T08:55:01;92329.09;;;6.59;45.48
39455;BME280;25155;41.890;23.446;2023-01-06T08:57:30;92327.25;;;6.59;45.54
39455;BME280;25155;41.890;23.446;2023-01-06T08:59:57;92301.81;;;6.67;45.27
39455;BME280;25155;41.890;23.446;2023-01-06T09:02:24;92312.03;;;6.73;45.40
39455;BME280;25155;41.890;23.446;2023-01-06T09:04:54;92322.97;;;6.75;44.53
39455;BME280;25155;41.890;23.446;2023-01-06T09:07:21;92319.84;;;6.73;44.36
39455;BME280;25155;41.890;23.446;2023-01-06T09:09:48;92315.41;;;6.74;44.56
39455;BME280;25155;41.890;23.446;2023-01-06T09:12:15;92305.81;;;6.79;44.12
39455;BME280;25155;41.890;23.446;2023-01-06T09:14:43;92331.41;;;6.88;44.62
39455;BME280;25155;41.890;23.446;2023-01-06T09:17:10;92331.19;;;6.94;43.84
39455;BME280;25155;41.890;23.446;2023-01-06T09:19:38;92325.50;;;6.97;44.26
39455;BME280;25155;41.890;23.446;2023-01-06T09:22:05;92327.16;;;7.09;43.55
39455;BME280;25155;41.890;23.446;2023-01-06T09:24:33;92322.19;;;7.07;43.97
39455;BME280;25155;41.890;23.446;2023-01-06T09:27:00;92317.00;;;7.12;43.42
39455;BME280;25155;41.890;23.446;2023-01-06T09:29:27;92326.41;;;7.13;43.26
39455;BME280;25155;41.890;23.446;2023-01-06T09:31:56;92316.78;;;7.19;43.19
39455;BME280;25155;41.890;23.446;2023-01-06T09:34:23;92325.97;;;7.27;43.32
39455;BME280;25155;41.890;23.446;2023-01-06T09:36:50;92298.03;;;7.22;43.84
39455;BME280;25155;41.890;23.446;2023-01-06T09:39:17;92310.66;;;7.36;43.20
39455;BME280;25155;41.890;23.446;2023-01-06T09:42:23;92293.41;;;7.29;42.93
39455;BME280;25155;41.890;23.446;2023-01-06T09:44:57;92302.13;;;7.45;42.66
39455;BME280;25155;41.890;23.446;2023-01-06T09:47:32;92293.81;;;7.48;43.01
39455;BME280;25155;41.890;23.446;2023-01-06T09:50:07;92295.59;;;7.43;42.81
39455;BME280;25155;41.890;23.446;2023-01-06T09:56:23;92277.19;;;7.60;42.27
39455;BME280;25155;41.890;23.446;2023-01-06T09:58:55;92274.59;;;7.65;42.35
39455;BME280;25155;41.890;23.446;2023-01-06T10:01:28;92272.50;;;7.67;42.52
39455;BME280;25155;41.890;23.446;2023-01-06T10:03:58;92273.06;;;7.74;42.73
39455;BME280;25155;41.890;23.446;2023-01-06T10:06:30;92261.03;;;7.68;41.98
39455;BME280;25155;41.890;23.446;2023-01-06T10:09:09;92250.59;;;7.68;42.19
39455;BME280;25155;41.890;23.446;2023-01-06T10:11:50;92253.69;;;7.60;41.66
39455;BME280;25155;41.890;23.446;2023-01-06T10:14:25;92257.56;;;7.52;42.55
39455;BME280;25155;41.890;23.446;2023-01-06T10:17:10;92247.94;;;7.52;42.58
39455;BME280;25155;41.890;23.446;2023-01-06T10:19:53;92251.31;;;7.48;42.65
39455;BME280;25155;41.890;23.446;2023-01-06T10:22:30;92250.25;;;7.54;42.00
39455;BME280;25155;41.890;23.446;2023-01-06T10:25:09;92247.38;;;7.45;42.13
39455;BME280;25155;41.890;23.446;2023-01-06T10:27:47;92222.03;;;7.36;42.06
39455;BME280;25155;41.890;23.446;2023-01-06T10:30:18;92253.63;;;7.44;42.53
39455;BME280;25155;41.890;23.446;2023-01-06T10:32:47;92244.47;;;7.42;41.83
39455;BME280;25155;41.890;23.446;2023-01-06T10:35:19;92251.50;;;7.36;42.11
39455;BME280;25155;41.890;23.446;2023-01-06T10:37:48;92244.22;;;7.43;42.39
39455;BME280;25155;41.890;23.446;2023-01-06T10:40:20;92239.56;;;7.50;42.61
39455;BME280;25155;41.890;23.446;2023-01-06T10:42:50;92247.38;;;7.45;41.61
39455;BME280;25155;41.890;23.446;2023-01-06T10:45:35;92251.09;;;7.60;42.45
39455;BME280;25155;41.890;23.446;2023-01-06T10:48:06;92241.69;;;7.59;42.60
39455;BME280;25155;41.890;23.446;2023-01-06T10:50:36;92242.25;;;7.66;42.19
39455;BME280;25155;41.890;23.446;2023-01-06T10:53:04;92227.88;;;7.58;42.06
39455;BME280;25155;41.890;23.446;2023-01-06T10:55:37;92235.69;;;7.58;42.64
39455;BME280;25155;41.890;23.446;2023-01-06T10:58:10;92229.50;;;7.75;41.72
39455;BME280;25155;41.890;23.446;2023-01-06T11:00:54;92225.31;;;7.74;42.45
39455;BME280;25155;41.890;23.446;2023-01-06T11:03:21;92221.94;;;7.78;42.31
39455;BME280;25155;41.890;23.446;2023-01-06T11:06:00;92227.69;;;7.80;42.39
39455;BME280;25155;41.890;23.446;2023-01-06T11:08:28;92226.41;;;7.93;42.32
39455;BME280;25155;41.890;23.446;2023-01-06T11:10:56;92209.44;;;7.90;42.18
39455;BME280;25155;41.890;23.446;2023-01-06T11:13:27;92227.75;;;8.01;42.77
39455;BME280;25155;41.890;23.446;2023-01-06T11:15:55;92224.13;;;8.12;42.26
39455;BME280;25155;41.890;23.446;2023-01-06T11:18:26;92225.69;;;8.13;41.77
39455;BME280;25155;41.890;23.446;2023-01-06T11:21:07;92218.34;;;8.10;41.62
39455;BME280;25155;41.890;23.446;2023-01-06T11:23:36;92224.06;;;8.02;42.73
39455;BME280;25155;41.890;23.446;2023-01-06T11:26:15;92206.31;;;7.94;42.17
39455;BME280;25155;41.890;23.446;2023-01-06T11:28:44;92223.03;;;7.93;41.67
39455;BME280;25155;41.890;23.446;2023-01-06T11:31:18;92199.28;;;7.89;41.31
39455;BME280;25155;41.890;23.446;2023-01-06T11:33:49;92206.06;;;7.90;40.51
39455;BME280;25155;41.890;23.446;2023-01-06T11:36:20;92213.09;;;7.84;41.88
39455;BME280;25155;41.890;23.446;2023-01-06T11:38:50;92198.97;;;7.80;40.97
39455;BME280;25155;41.890;23.446;2023-01-06T11:41:25;92209.63;;;7.68;40.76
39455;BME280;25155;41.890;23.446;2023-01-06T11:43:56;92201.31;;;7.71;41.01
39455;BME280;25155;41.890;23.446;2023-01-06T11:46:29;92199.53;;;7.82;41.05
39455;BME280;25155;41.890;23.446;2023-01-06T11:49:00;92202.16;;;7.87;40.88
39455;BME280;25155;41.890;23.446;2023-01-06T11:51:46;92210.47;;;7.79;41.82
39455;BME280;25155;41.890;23.446;2023-01-06T11:54:23;92204.47;;;7.84;42.64
39455;BME280;25155;41.890;23.446;2023-01-06T11:57:03;92201.84;;;7.84;41.88
39455;BME280;25155;41.890;23.446;2023-01-06T11:59:49;92212.50;;;7.72;41.93
39455;BME280;25155;41.890;23.446;2023-01-06T12:02:24;92207.31;;;7.77;42.08
39455;BME280;25155;41.890;23.446;2023-01-06T12:04:55;92201.59;;;7.85;41.60
39455;BME280;25155;41.890;23.446;2023-01-06T12:07:30;92180.72;;;7.90;41.57
39455;BME280;25155;41.890;23.446;2023-01-06T12:10:03;92202.66;;;7.84;42.03
39455;BME280;25155;41.890;23.446;2023-01-06T12:12:33;92200.81;;;7.85;42.16
39455;BME280;25155;41.890;23.446;2023-01-06T12:15:00;92205.50;;;7.78;42.38
39455;BME280;25155;41.890;23.446;2023-01-06T12:17:34;92203.13;;;7.66;43.19
39455;BME280;25155;41.890;23.446;2023-01-06T12:20:06;92205.19;;;7.69;42.91
39455;BME280;25155;41.890;23.446;2023-01-06T12:22:42;92204.44;;;7.74;42.67
39455;BME280;25155;41.890;23.446;2023-01-06T12:25:15;92205.78;;;7.86;42.42
39455;BME280;25155;41.890;23.446;2023-01-06T12:27:46;92203.44;;;7.85;42.51
39455;BME280;25155;41.890;23.446;2023-01-06T12:30:20;92195.31;;;7.76;42.35
39455;BME280;25155;41.890;23.446;2023-01-06T12:32:54;92193.75;;;7.80;42.33
39455;BME280;25155;41.890;23.446;2023-01-06T12:35:25;92195.09;;;7.93;42.68
39455;BME280;25155;41.890;23.446;2023-01-06T12:38:00;92196.66;;;7.89;42.12
39455;BME280;25155;41.890;23.446;2023-01-06T12:40:32;92205.78;;;7.86;42.24
39455;BME280;25155;41.890;23.446;2023-01-06T12:43:12;92209.97;;;7.93;42.48
39455;BME280;25155;41.890;23.446;2023-01-06T12:45:46;92212.59;;;7.93;42.09
39455;BME280;25155;41.890;23.446;2023-01-06T12:48:22;92205.28;;;7.95;41.88
39455;BME280;25155;41.890;23.446;2023-01-06T12:50:54;92203.69;;;7.83;42.09
39455;BME280;25155;41.890;23.446;2023-01-06T12:53:27;92206.28;;;7.83;41.95
39455;BME280;25155;41.890;23.446;2023-01-06T12:56:05;92209.72;;;7.89;41.74
39455;BME280;25155;41.890;23.446;2023-01-06T12:58:41;92203.97;;;7.92;41.83
39455;BME280;25155;41.890;23.446;2023-01-06T13:01:17;92207.91;;;8.05;41.46
39455;BME280;25155;41.890;23.446;2023-01-06T13:07:04;92211.81;;;7.97;41.22
39455;BME280;25155;41.890;23.446;2023-01-06T13:09:50;92197.97;;;8.07;41.33
39455;BME280;25155;41.890;23.446;2023-01-06T13:12:37;92209.50;;;8.16;40.62
39455;BME280;25155;41.890;23.446;2023-01-06T13:15:14;92214.72;;;8.06;40.57
39455;BME280;25155;41.890;23.446;2023-01-06T13:17:51;92220.94;;;8.00;40.86
39455;BME280;25155;41.890;23.446;2023-01-06T13:20:27;92211.03;;;8.07;41.34
39455;BME280;25155;41.890;23.446;2023-01-06T13:23:06;92221.25;;;8.19;40.96
39455;BME280;25155;41.890;23.446;2023-01-06T13:25:50;92216.31;;;8.22;41.15
39455;BME280;25155;41.890;23.446;2023-01-06T13:28:26;92215.25;;;8.23;40.99
39455;BME280;25155;41.890;23.446;2023-01-06T13:34:24;92219.69;;;8.13;41.03
39455;BME280;25155;41.890;23.446;2023-01-06T13:37:08;92235.34;;;8.23;41.12